Time;durP1;ratioP1;P1;durP2;ratioP2;P2;SDS_P1;SDS_P2;PMS_P1;PMS_P2;Temp;Humidity;BMP_temperature;BMP_pressure;BME280_temperature;BME280_humidity;BME280_pressure;Samples;Min_cycle;Max_cycle;Signal;HPM_P1;HPM_P2
2023/08/11 00:00:50;;;;;;;20.10;6.05;;;;;;;;;;4975352;28;20031;-70
2023/08/11 00:03:17;;;;;;;10.98;5.57;;;;;;;;;;4975058;28;20403;-70
2023/08/11 00:05:43;;;;;;;16.52;5.93;;;;;;;;;;4974952;28;20395;-70
2023/08/11 00:08:13;;;;;;;13.20;5.78;;;;;;;;;;4974814;28;20106;-70
2023/08/11 00:10:39;;;;;;;13.40;5.82;;;;;;;;;;4974520;28;20019;-70
2023/08/11 00:13:08;;;;;;;9.80;5.47;;;;;;;;;;4973358;28;20037;-70
2023/08/11 00:15:39;;;;;;;14.32;5.93;;;;;;;;;;4973863;28;20053;-70
2023/08/11 00:18:06;;;;;;;10.75;5.22;;;;;;;;;;4974611;28;20019;-70
2023/08/11 00:20:32;;;;;;;13.82;6.22;;;;;;;;;;4975018;28;20035;-70
2023/08/11 00:22:58;;;;;;;13.15;6.20;;;;;;;;;;4974770;28;20526;-70
2023/08/11 00:25:24;;;;;;;15.00;6.25;;;;;;;;;;4974448;28;20034;-70
2023/08/11 00:27:51;;;;;;;13.43;6.20;;;;;;;;;;4974562;28;20021;-71
2023/08/11 00:30:18;;;;;;;13.40;6.43;;;;;;;;;;4974433;28;20027;-70
2023/08/11 00:32:45;;;;;;;11.18;5.40;;;;;;;;;;4974705;28;20035;-70
2023/08/11 00:35:12;;;;;;;11.13;5.93;;;;;;;;;;4973052;28;20049;-70
2023/08/11 00:37:38;;;;;;;11.70;5.68;;;;;;;;;;4974719;28;20022;-70
2023/08/11 00:40:06;;;;;;;12.77;6.10;;;;;;;;;;4974073;28;20027;-71
2023/08/11 00:42:32;;;;;;;12.82;5.85;;;;;;;;;;4974279;28;20526;-70
2023/08/11 00:44:59;;;;;;;15.20;6.10;;;;;;;;;;4974221;28;20029;-70
2023/08/11 00:47:25;;;;;;;15.75;6.07;;;;;;;;;;4974177;28;20030;-70
2023/08/11 00:49:52;;;;;;;13.98;6.38;;;;;;;;;;4974070;28;20023;-71
2023/08/11 00:52:18;;;;;;;16.90;5.78;;;;;;;;;;4974178;28;20407;-70
2023/08/11 00:54:45;;;;;;;11.10;5.85;;;;;;;;;;4973777;28;20038;-70
2023/08/11 00:57:13;;;;;;;20.27;6.32;;;;;;;;;;4974037;28;20023;-71
2023/08/11 00:59:39;;;;;;;14.35;6.10;;;;;;;;;;4974354;28;20023;-70
2023/08/11 01:02:06;;;;;;;13.70;6.38;;;;;;;;;;4974002;28;20414;-71
2023/08/11 01:04:33;;;;;;;14.20;6.45;;;;;;;;;;4974229;28;20023;-70
2023/08/11 01:07:02;;;;;;;14.93;6.97;;;;;;;;;;4974070;28;20030;-71
2023/08/11 01:09:37;;;;;;;13.57;5.28;;;;;;;;;;4973537;28;20484;-70
2023/08/11 01:12:07;;;;;;;14.75;6.00;;;;;;;;;;4974138;28;20057;-70
2023/08/11 01:14:33;;;;;;;15.05;6.20;;;;;;;;;;4973529;28;20053;-71
2023/08/11 01:17:01;;;;;;;10.52;5.72;;;;;;;;;;4973479;28;20126;-70
2023/08/11 01:19:28;;;;;;;11.75;5.82;;;;;;;;;;4973759;28;20035;-71
2023/08/11 01:21:57;;;;;;;12.77;6.13;;;;;;;;;;4973487;28;20023;-70
2023/08/11 01:24:24;;;;;;;11.63;5.63;;;;;;;;;;4973701;28;20030;-70
2023/08/11 01:26:50;;;;;;;14.57;6.35;;;;;;;;;;4973499;28;20053;-70
2023/08/11 01:29:18;;;;;;;16.08;6.32;;;;;;;;;;4973721;28;20031;-71
2023/08/11 01:31:44;;;;;;;13.48;5.75;;;;;;;;;;4973577;28;20502;-70
2023/08/11 01:34:11;;;;;;;11.50;5.90;;;;;;;;;;4973759;28;20031;-70
2023/08/11 01:36:38;;;;;;;15.70;5.93;;;;;;;;;;4973669;28;20047;-70
2023/08/11 01:39:05;;;;;;;12.85;5.95;;;;;;;;;;4973571;28;20017;-71
2023/08/11 01:41:32;;;;;;;13.55;6.47;;;;;;;;;;4973534;28;20031;-70
2023/08/11 01:43:59;;;;;;;13.68;5.70;;;;;;;;;;4973401;28;20026;-70
2023/08/11 01:46:26;;;;;;;12.20;6.00;;;;;;;;;;4974003;28;20045;-70
2023/08/11 01:48:55;;;;;;;14.02;6.28;;;;;;;;;;4973370;28;20030;-71
2023/08/11 01:51:21;;;;;;;11.15;6.07;;;;;;;;;;4973146;28;20333;-70
2023/08/11 01:53:48;;;;;;;16.45;5.28;;;;;;;;;;4973340;28;20387;-70
2023/08/11 01:56:15;;;;;;;11.50;6.22;;;;;;;;;;4973379;28;20022;-70
2023/08/11 01:58:42;;;;;;;12.00;6.28;;;;;;;;;;4972098;28;20031;-70
2023/08/11 02:01:08;;;;;;;18.77;6.53;;;;;;;;;;4973301;28;20361;-70
2023/08/11 02:03:34;;;;;;;14.90;6.45;;;;;;;;;;4973340;28;20037;-70
2023/08/11 02:06:01;;;;;;;19.27;6.10;;;;;;;;;;4973039;28;20488;-70
2023/08/11 02:08:27;;;;;;;11.82;5.70;;;;;;;;;;4973065;28;20545;-70
2023/08/11 02:10:53;;;;;;;11.63;5.55;;;;;;;;;;4973373;28;20034;-70
2023/08/11 02:13:20;;;;;;;12.43;6.22;;;;;;;;;;4973188;28;20066;-71
2023/08/11 02:15:46;;;;;;;12.18;5.65;;;;;;;;;;4973081;28;20484;-71
2023/08/11 02:18:13;;;;;;;9.60;5.38;;;;;;;;;;4973045;28;20031;-71
2023/08/11 02:20:41;;;;;;;15.15;5.95;;;;;;;;;;4973254;28;20033;-70
2023/08/11 02:23:08;;;;;;;10.35;5.40;;;;;;;;;;4973197;28;20027;-70
2023/08/11 02:25:36;;;;;;;14.70;5.82;;;;;;;;;;4973014;28;20015;-70
2023/08/11 02:28:04;;;;;;;13.93;5.90;;;;;;;;;;4971990;28;20391;-70
2023/08/11 02:30:30;;;;;;;12.80;5.95;;;;;;;;;;4972972;28;20045;-71
2023/08/11 02:32:57;;;;;;;13.20;5.93;;;;;;;;;;4973177;28;20041;-70
2023/08/11 02:35:23;;;;;;;9.57;5.85;;;;;;;;;;4972854;28;20041;-70
2023/08/11 02:37:49;;;;;;;15.95;5.90;;;;;;;;;;4974584;28;20027;-69
2023/08/11 02:40:19;;;;;;;13.43;5.80;;;;;;;;;;4976437;28;20027;-70
2023/08/11 02:42:50;;;;;;;15.83;6.17;;;;;;;;;;4976656;28;20015;-70
2023/08/11 02:45:16;;;;;;;14.45;6.63;;;;;;;;;;4976360;28;20270;-70
2023/08/11 02:47:43;;;;;;;14.63;6.50;;;;;;;;;;4976756;28;20030;-70
2023/08/11 02:50:09;;;;;;;13.30;6.10;;;;;;;;;;4976085;28;20027;-70
2023/08/11 02:52:36;;;;;;;14.30;5.72;;;;;;;;;;4976561;28;20037;-70
2023/08/11 02:55:06;;;;;;;18.55;6.72;;;;;;;;;;4976162;28;20030;-70
2023/08/11 02:57:32;;;;;;;16.23;6.68;;;;;;;;;;4976344;28;20033;-70
2023/08/11 02:59:59;;;;;;;12.57;6.60;;;;;;;;;;4976213;28;20025;-70
2023/08/11 03:02:26;;;;;;;11.60;6.25;;;;;;;;;;4976466;28;20030;-70
2023/08/11 03:04:52;;;;;;;17.08;6.43;;;;;;;;;;4976048;28;20019;-71
2023/08/11 03:07:19;;;;;;;16.27;6.22;;;;;;;;;;4975894;28;20411;-70
2023/08/11 03:09:45;;;;;;;12.70;6.25;;;;;;;;;;4974873;28;20026;-70
2023/08/11 03:12:11;;;;;;;13.68;6.80;;;;;;;;;;4976409;28;20031;-70
2023/08/11 03:14:37;;;;;;;14.50;6.38;;;;;;;;;;4975786;28;20047;-70
2023/08/11 03:17:05;;;;;;;14.75;6.63;;;;;;;;;;4975798;28;20031;-70
2023/08/11 03:19:32;;;;;;;9.13;5.78;;;;;;;;;;4975390;28;20488;-70
2023/08/11 03:21:58;;;;;;;13.40;6.68;;;;;;;;;;4975761;28;20373;-70
2023/08/11 03:24:25;;;;;;;13.32;6.13;;;;;;;;;;4975687;28;20029;-70
2023/08/11 03:26:51;;;;;;;13.77;6.38;;;;;;;;;;4975804;28;20431;-70
2023/08/11 03:29:17;;;;;;;12.90;6.93;;;;;;;;;;4975828;28;20031;-70
2023/08/11 03:31:44;;;;;;;17.92;6.47;;;;;;;;;;4975936;28;20041;-70
2023/08/11 03:34:10;;;;;;;12.45;6.47;;;;;;;;;;4975083;28;20029;-70
2023/08/11 03:36:36;;;;;;;17.02;7.32;;;;;;;;;;4975564;28;20023;-71
2023/08/11 03:39:03;;;;;;;12.50;6.80;;;;;;;;;;4975892;28;20031;-70
2023/08/11 03:41:29;;;;;;;13.10;6.63;;;;;;;;;;4975319;28;20399;-70
2023/08/11 03:43:56;;;;;;;15.73;6.70;;;;;;;;;;4975502;28;20027;-70
2023/08/11 03:46:22;;;;;;;14.98;6.80;;;;;;;;;;4975425;28;20030;-70
2023/08/11 03:48:48;;;;;;;15.32;6.85;;;;;;;;;;4974131;28;20035;-70
2023/08/11 03:51:14;;;;;;;16.15;6.88;;;;;;;;;;4975122;28;20031;-70
2023/08/11 03:53:41;;;;;;;13.50;6.43;;;;;;;;;;4975513;28;20033;-70
2023/08/11 03:56:08;;;;;;;11.23;6.53;;;;;;;;;;4975029;28;20034;-70
2023/08/11 03:58:37;;;;;;;15.55;6.55;;;;;;;;;;4975045;28;20023;-69
2023/08/11 04:01:04;;;;;;;11.43;6.63;;;;;;;;;;4975002;28;20146;-71
2023/08/11 04:03:33;;;;;;;17.30;7.10;;;;;;;;;;4974717;28;20030;-71
2023/08/11 04:06:00;;;;;;;13.10;6.25;;;;;;;;;;4975011;28;20480;-70
2023/08/11 04:08:27;;;;;;;13.70;6.38;;;;;;;;;;4975238;28;20019;-69
2023/08/11 04:10:53;;;;;;;14.93;6.32;;;;;;;;;;4974889;28;20084;-69
2023/08/11 04:13:20;;;;;;;14.05;6.03;;;;;;;;;;4974636;28;20038;-69
2023/08/11 04:15:49;;;;;;;14.93;7.07;;;;;;;;;;4974414;28;20518;-70
2023/08/11 04:18:16;;;;;;;13.48;6.85;;;;;;;;;;4974517;28;20480;-69
2023/08/11 04:20:42;;;;;;;14.23;6.88;;;;;;;;;;4974718;28;20031;-69
2023/08/11 04:23:08;;;;;;;11.70;6.75;;;;;;;;;;4974768;28;20026;-70
2023/08/11 04:25:35;;;;;;;14.25;6.93;;;;;;;;;;4974772;28;20033;-70
2023/08/11 04:28:02;;;;;;;9.93;5.72;;;;;;;;;;4974807;28;20029;-70
2023/08/11 04:30:29;;;;;;;13.45;7.25;;;;;;;;;;4974195;28;20377;-70
2023/08/11 04:32:55;;;;;;;16.42;6.18;;;;;;;;;;4974577;28;20023;-70
2023/08/11 04:35:22;;;;;;;14.15;6.40;;;;;;;;;;4974508;28;20037;-69
2023/08/11 04:37:48;;;;;;;13.07;6.22;;;;;;;;;;4974437;28;20022;-70
2023/08/11 04:40:15;;;;;;;13.45;6.88;;;;;;;;;;4974391;28;20427;-70
2023/08/11 04:42:41;;;;;;;15.20;6.40;;;;;;;;;;4974147;28;20388;-70
2023/08/11 04:45:08;;;;;;;11.57;5.78;;;;;;;;;;4973905;28;20407;-70
2023/08/11 04:47:35;;;;;;;13.50;6.55;;;;;;;;;;4974450;28;20019;-70
2023/08/11 04:50:02;;;;;;;15.65;6.03;;;;;;;;;;4972924;28;20035;-70
2023/08/11 04:52:28;;;;;;;16.67;5.82;;;;;;;;;;4974273;28;20484;-69
2023/08/11 04:54:54;;;;;;;12.82;6.15;;;;;;;;;;4974063;28;20499;-70
2023/08/11 04:57:21;;;;;;;15.07;5.50;;;;;;;;;;4974021;28;20027;-70
2023/08/11 04:59:47;;;;;;;14.88;6.60;;;;;;;;;;4973719;28;20037;-70
2023/08/11 05:02:14;;;;;;;16.05;5.63;;;;;;;;;;4973963;28;20022;-70
2023/08/11 05:04:40;;;;;;;17.27;6.88;;;;;;;;;;4974017;28;20015;-70
2023/08/11 05:07:06;;;;;;;12.30;6.25;;;;;;;;;;4974043;28;20547;-70
2023/08/11 05:09:35;;;;;;;15.43;6.63;;;;;;;;;;4973809;28;20026;-70
2023/08/11 05:12:02;;;;;;;16.80;6.60;;;;;;;;;;4974063;28;20490;-70
2023/08/11 05:14:28;;;;;;;15.88;6.45;;;;;;;;;;4973184;28;20043;-70
2023/08/11 05:16:54;;;;;;;13.20;6.07;;;;;;;;;;4974125;28;20033;-70
2023/08/11 05:19:21;;;;;;;18.33;6.38;;;;;;;;;;4954530;29;20035;-70
2023/08/11 05:21:47;;;;;;;12.85;6.07;;;;;;;;;;4954749;28;20037;-70
2023/08/11 05:24:14;;;;;;;17.13;6.28;;;;;;;;;;4954610;29;20073;-70
2023/08/11 05:26:40;;;;;;;14.20;6.10;;;;;;;;;;4954390;29;20019;-69
2023/08/11 05:29:06;;;;;;;23.05;7.47;;;;;;;;;;4954218;29;20489;-70
2023/08/11 05:31:33;;;;;;;16.42;6.53;;;;;;;;;;4954586;28;20029;-70
2023/08/11 05:33:59;;;;;;;11.35;6.00;;;;;;;;;;4954341;29;20026;-70
2023/08/11 05:36:27;;;;;;;16.23;6.40;;;;;;;;;;4954644;28;20043;-70
2023/08/11 05:38:53;;;;;;;19.05;6.18;;;;;;;;;;4954509;29;20012;-70
2023/08/11 05:41:19;;;;;;;17.73;5.80;;;;;;;;;;4954328;29;20487;-70
2023/08/11 05:43:46;;;;;;;17.80;6.20;;;;;;;;;;4953982;28;20443;-70
2023/08/11 05:46:12;;;;;;;16.70;6.25;;;;;;;;;;4954086;29;20027;-70
2023/08/11 05:48:38;;;;;;;14.07;5.97;;;;;;;;;;4954480;28;20016;-70
2023/08/11 05:51:05;;;;;;;15.55;6.95;;;;;;;;;;4954415;28;20027;-70
2023/08/11 05:53:31;;;;;;;14.70;6.70;;;;;;;;;;4954098;28;20031;-69
2023/08/11 05:55:58;;;;;;;12.45;7.07;;;;;;;;;;4954184;29;20489;-70
2023/08/11 05:58:24;;;;;;;9.98;6.57;;;;;;;;;;4953832;29;20031;-70
2023/08/11 06:00:51;;;;;;;19.42;6.35;;;;;;;;;;4954229;29;20373;-70
2023/08/11 06:03:17;;;;;;;12.02;6.25;;;;;;;;;;4954141;28;20086;-70
2023/08/11 06:05:43;;;;;;;17.40;7.18;;;;;;;;;;4954174;29;20399;-70
2023/08/11 06:08:10;;;;;;;14.25;6.53;;;;;;;;;;4953987;29;20041;-70
2023/08/11 06:10:36;;;;;;;18.20;6.53;;;;;;;;;;4953901;28;20451;-69
2023/08/11 06:13:02;;;;;;;16.95;6.28;;;;;;;;;;4963063;28;20027;-75
2023/08/11 06:15:30;;;;;;;21.58;6.85;;;;;;;;;;4976430;28;20400;-75
2023/08/11 06:17:56;;;;;;;12.32;6.95;;;;;;;;;;4975990;28;20031;-75
2023/08/11 06:20:22;;;;;;;13.73;6.13;;;;;;;;;;4976698;28;20027;-75
2023/08/11 06:22:49;;;;;;;13.93;6.32;;;;;;;;;;4976744;28;20029;-75
2023/08/11 06:25:15;;;;;;;17.77;6.43;;;;;;;;;;4976248;28;20033;-75
2023/08/11 06:27:42;;;;;;;16.88;5.97;;;;;;;;;;4974396;28;20049;-74
2023/08/11 06:30:12;;;;;;;14.63;6.40;;;;;;;;;;4976549;28;20023;-73
2023/08/11 06:32:38;;;;;;;14.13;6.20;;;;;;;;;;4975757;28;20423;-74
2023/08/11 06:35:07;;;;;;;14.98;6.18;;;;;;;;;;4960407;28;20033;-73
2023/08/11 06:37:33;;;;;;;14.43;6.40;;;;;;;;;;4957284;28;20024;-73
2023/08/11 06:39:59;;;;;;;16.75;5.63;;;;;;;;;;4956784;29;20511;-73
2023/08/11 06:42:26;;;;;;;15.25;5.82;;;;;;;;;;4960948;28;20037;-73
2023/08/11 06:44:52;;;;;;;13.82;6.18;;;;;;;;;;4959533;28;20035;-75
2023/08/11 06:47:19;;;;;;;13.60;5.22;;;;;;;;;;4956167;28;20500;-74
2023/08/11 06:49:45;;;;;;;12.27;5.45;;;;;;;;;;4967628;28;20023;-74
2023/08/11 06:52:11;;;;;;;13.93;5.70;;;;;;;;;;4955316;29;20020;-74
2023/08/11 06:54:37;;;;;;;11.55;5.80;;;;;;;;;;4967129;28;20043;-74
2023/08/11 06:57:04;;;;;;;13.63;5.50;;;;;;;;;;4975265;28;20026;-75
2023/08/11 06:59:31;;;;;;;19.60;5.28;;;;;;;;;;4975797;28;20031;-74
2023/08/11 07:01:57;;;;;;;17.42;5.93;;;;;;;;;;4975783;28;20023;-74
2023/08/11 07:04:24;;;;;;;14.48;5.70;;;;;;;;;;4975289;28;20037;-75
2023/08/11 07:06:50;;;;;;;15.98;5.30;;;;;;;;;;4975430;28;20033;-75
2023/08/11 07:09:16;;;;;;;16.50;5.68;;;;;;;;;;4976004;28;20045;-75
2023/08/11 07:11:42;;;;;;;12.27;5.75;;;;;;;;;;4975555;28;20391;-75
2023/08/11 07:14:09;;;;;;;15.43;5.70;;;;;;;;;;4974684;28;20046;-74
2023/08/11 07:16:35;;;;;;;11.43;5.65;;;;;;;;;;4975356;28;20027;-74
2023/08/11 07:19:01;;;;;;;13.13;5.05;;;;;;;;;;4975307;28;20391;-73
2023/08/11 07:21:28;;;;;;;23.10;6.00;;;;;;;;;;4972044;28;20045;-73
2023/08/11 07:23:55;;;;;;;15.55;5.43;;;;;;;;;;4975285;28;20033;-74
2023/08/11 07:26:21;;;;;;;15.52;6.03;;;;;;;;;;4974965;28;20500;-75
2023/08/11 07:28:47;;;;;;;14.80;5.28;;;;;;;;;;4975549;28;20026;-74
2023/08/11 07:31:14;;;;;;;16.30;5.57;;;;;;;;;;4974833;28;20668;-74
2023/08/11 07:33:42;;;;;;;14.38;5.75;;;;;;;;;;4975185;28;20391;-73
2023/08/11 07:36:08;;;;;;;13.15;5.05;;;;;;;;;;4974983;28;20045;-74
2023/08/11 07:38:35;;;;;;;11.68;5.28;;;;;;;;;;4975115;28;20027;-74
2023/08/11 07:41:01;;;;;;;15.27;5.45;;;;;;;;;;4975062;28;20031;-75
2023/08/11 07:43:27;;;;;;;16.42;5.75;;;;;;;;;;4974437;28;20027;-74
2023/08/11 07:45:54;;;;;;;12.20;5.45;;;;;;;;;;4974993;28;20041;-75
2023/08/11 07:48:20;;;;;;;9.95;4.82;;;;;;;;;;4974911;28;20554;-75
2023/08/11 07:50:46;;;;;;;14.18;4.90;;;;;;;;;;4974961;28;20027;-76
2023/08/11 07:53:13;;;;;;;12.15;4.60;;;;;;;;;;4974258;28;20115;-70
2023/08/11 07:55:40;;;;;;;13.57;4.90;;;;;;;;;;4974666;28;20049;-71
2023/08/11 07:58:07;;;;;;;11.32;4.55;;;;;;;;;;4974384;28;20027;-71
2023/08/11 08:00:33;;;;;;;12.23;4.63;;;;;;;;;;4973915;28;20039;-71
2023/08/11 08:03:00;;;;;;;9.13;4.78;;;;;;;;;;4974450;28;20049;-71
2023/08/11 08:05:26;;;;;;;10.77;4.65;;;;;;;;;;4974367;28;20081;-70
2023/08/11 08:07:52;;;;;;;12.77;5.10;;;;;;;;;;4973491;28;20025;-68
2023/08/11 08:10:20;;;;;;;10.73;4.63;;;;;;;;;;4974550;28;20023;-71
2023/08/11 08:12:46;;;;;;;14.80;4.43;;;;;;;;;;4973129;28;20361;-71
2023/08/11 08:15:14;;;;;;;10.68;4.45;;;;;;;;;;4973915;28;20431;-70
2023/08/11 08:17:41;;;;;;;10.30;4.50;;;;;;;;;;4974098;28;20054;-69
2023/08/11 08:20:08;;;;;;;9.55;4.88;;;;;;;;;;4972021;28;20027;-68
2023/08/11 08:22:35;;;;;;;8.63;4.70;;;;;;;;;;4973587;28;20040;-69
2023/08/11 08:25:01;;;;;;;9.25;4.32;;;;;;;;;;4971616;28;20023;-68
2023/08/11 08:27:27;;;;;;;12.52;4.70;;;;;;;;;;4956978;28;20526;-70
2023/08/11 08:29:54;;;;;;;7.05;4.38;;;;;;;;;;4963750;28;20018;-69
2023/08/11 08:32:21;;;;;;;9.52;4.50;;;;;;;;;;4974326;28;20027;-68
2023/08/11 08:34:48;;;;;;;8.07;4.30;;;;;;;;;;4973619;28;20054;-69
2023/08/11 08:37:15;;;;;;;11.48;4.70;;;;;;;;;;4973664;28;20045;-69
2023/08/11 08:39:43;;;;;;;9.32;4.30;;;;;;;;;;4974201;28;20033;-68
2023/08/11 08:42:10;;;;;;;8.95;4.43;;;;;;;;;;4973997;28;20381;-69
2023/08/11 08:44:37;;;;;;;11.63;4.40;;;;;;;;;;4973619;28;20027;-69
2023/08/11 08:47:06;;;;;;;8.07;4.20;;;;;;;;;;4973946;28;20026;-69
2023/08/11 08:49:33;;;;;;;7.82;4.38;;;;;;;;;;4973733;28;20023;-70
2023/08/11 08:52:00;;;;;;;16.58;4.60;;;;;;;;;;4973281;28;20403;-69
2023/08/11 08:54:27;;;;;;;9.30;4.13;;;;;;;;;;4973889;28;20023;-68
2023/08/11 08:56:54;;;;;;;8.93;4.30;;;;;;;;;;4972706;28;20043;-70
2023/08/11 08:59:21;;;;;;;11.50;4.63;;;;;;;;;;4973876;28;20027;-70
2023/08/11 09:01:48;;;;;;;8.43;4.80;;;;;;;;;;4973874;28;20033;-69
2023/08/11 09:04:14;;;;;;;7.93;4.47;;;;;;;;;;4973793;28;20019;-69
2023/08/11 09:06:41;;;;;;;10.35;5.05;;;;;;;;;;4973699;28;20031;-69
2023/08/11 09:09:09;;;;;;;11.50;5.10;;;;;;;;;;4973406;28;20086;-68
2023/08/11 09:11:38;;;;;;;11.98;4.72;;;;;;;;;;4973708;28;20023;-68
2023/08/11 09:14:04;;;;;;;;;;;;;;;;;;4973553;28;20051;-69
2023/08/11 09:16:31;;;;;;;12.15;5.18;;;;;;;;;;4973768;28;19918;-70
2023/08/11 09:18:58;;;;;;;11.10;4.40;;;;;;;;;;4973657;28;20381;-70
2023/08/11 09:21:24;;;;;;;9.27;4.90;;;;;;;;;;4973097;28;20035;-68
2023/08/11 09:23:52;;;;;;;8.82;4.70;;;;;;;;;;4973572;28;20033;-69
2023/08/11 09:26:22;;;;;;;7.90;5.00;;;;;;;;;;4973467;28;20419;-69
2023/08/11 09:28:50;;;;;;;10.43;4.10;;;;;;;;;;4973524;28;20027;-70
2023/08/11 09:31:16;;;;;;;10.70;5.03;;;;;;;;;;4973124;28;20030;-70
2023/08/11 09:33:42;;;;;;;9.90;4.88;;;;;;;;;;4973161;28;20093;-69
2023/08/11 09:36:10;;;;;;;9.60;4.68;;;;;;;;;;4972672;28;20030;-69
2023/08/11 09:38:36;;;;;;;8.13;4.43;;;;;;;;;;4973155;28;20019;-70
2023/08/11 09:41:03;;;;;;;7.95;5.15;;;;;;;;;;4973167;28;20387;-69
2023/08/11 09:43:32;;;;;;;11.60;4.55;;;;;;;;;;4973486;28;20089;-70
2023/08/11 09:46:01;;;;;;;8.00;4.50;;;;;;;;;;4971947;28;20027;-70
2023/08/11 09:48:28;;;;;;;6.18;4.22;;;;;;;;;;4977332;28;20026;-70
2023/08/11 09:50:56;;;;;;;8.32;4.45;;;;;;;;;;4976840;28;20080;-70
2023/08/11 09:53:23;;;;;;;7.20;4.50;;;;;;;;;;4976860;28;20034;-70
2023/08/11 09:55:50;;;;;;;8.43;4.32;;;;;;;;;;4976924;28;20398;-70
2023/08/11 09:58:18;;;;;;;6.45;4.22;;;;;;;;;;4976441;28;20030;-70
2023/08/11 10:00:47;;;;;;;6.82;4.22;;;;;;;;;;4976912;28;20033;-70
2023/08/11 10:03:18;;;;;;;8.38;3.72;;;;;;;;;;4976699;28;20037;-70
2023/08/11 10:05:45;;;;;;;6.57;3.80;;;;;;;;;;4976700;28;20029;-70
2023/08/11 10:08:19;;;;;;;8.38;4.18;;;;;;;;;;4976762;28;20041;-70
2023/08/11 10:10:45;;;;;;;5.78;3.67;;;;;;;;;;4976808;28;20365;-70
2023/08/11 10:13:15;;;;;;;6.72;4.20;;;;;;;;;;4976396;28;20053;-70
2023/08/11 10:15:41;;;;;;;6.70;4.28;;;;;;;;;;4976811;28;20042;-70
2023/08/11 10:18:08;;;;;;;10.00;3.63;;;;;;;;;;4983387;28;20018;-70
2023/08/11 10:20:34;;;;;;;7.57;3.65;;;;;;;;;;4976065;28;20391;-71
2023/08/11 10:23:02;;;;;;;6.75;3.78;;;;;;;;;;4975448;28;20033;-70
2023/08/11 10:25:29;;;;;;;13.27;4.00;;;;;;;;;;4976513;28;20093;-70
2023/08/11 10:27:56;;;;;;;6.68;3.88;;;;;;;;;;4976464;28;20031;-70
2023/08/11 10:30:23;;;;;;;8.50;3.90;;;;;;;;;;4976556;28;20027;-70
2023/08/11 10:33:10;;;;;;;6.38;3.38;;;;;;;;;;4975881;28;20484;-70
2023/08/11 10:35:52;;;;;;;7.38;3.70;;;;;;;;;;4976637;28;20400;-71
2023/08/11 10:38:26;;;;;;;6.80;3.67;;;;;;;;;;4976342;28;20027;-70
2023/08/11 10:40:57;;;;;;;4.57;3.47;;;;;;;;;;4976389;28;20015;-70
2023/08/11 10:43:28;;;;;;;5.47;3.88;;;;;;;;;;4976483;28;20019;-70
2023/08/11 10:45:54;;;;;;;6.47;3.72;;;;;;;;;;4976406;28;20061;-70
2023/08/11 10:48:25;;;;;;;8.80;5.22;;;;;;;;;;4976023;28;20023;-70
2023/08/11 10:50:51;;;;;;;6.72;3.58;;;;;;;;;;4976246;28;20026;-69
2023/08/11 10:53:22;;;;;;;5.38;3.17;;;;;;;;;;4976238;28;20034;-70
2023/08/11 10:56:01;;;;;;;5.63;3.33;;;;;;;;;;4976265;28;20038;-70
2023/08/11 10:58:30;;;;;;;5.25;3.55;;;;;;;;;;4975393;28;20029;-70
2023/08/11 11:00:56;;;;;;;;;;;;;;;;;;4976843;28;20045;-70
2023/08/11 11:03:22;;;;;;;9.90;3.75;;;;;;;;;;4975440;28;19913;-70
2023/08/11 11:05:49;;;;;;;7.80;3.60;;;;;;;;;;4975848;28;20506;-70
2023/08/11 11:08:15;;;;;;;6.82;3.42;;;;;;;;;;4976213;28;20027;-70
2023/08/11 11:10:42;;;;;;;11.00;3.80;;;;;;;;;;4975685;28;20030;-69
2023/08/11 11:13:08;;;;;;;5.25;3.05;;;;;;;;;;4975769;28;20484;-68
2023/08/11 11:15:35;;;;;;;5.38;2.88;;;;;;;;;;4974477;28;20054;-69
2023/08/11 11:18:02;;;;;;;6.25;3.13;;;;;;;;;;4975099;28;20022;-70
2023/08/11 11:20:28;;;;;;;3.65;3.00;;;;;;;;;;4975971;28;20030;-69
2023/08/11 11:22:55;;;;;;;3.70;2.78;;;;;;;;;;4975395;28;20494;-70
2023/08/11 11:25:21;;;;;;;8.63;3.20;;;;;;;;;;4975812;28;20080;-68
2023/08/11 11:27:48;;;;;;;5.43;2.92;;;;;;;;;;4974334;28;20030;-69
2023/08/11 11:30:15;;;;;;;4.88;2.92;;;;;;;;;;4975702;28;20026;-69
2023/08/11 11:32:42;;;;;;;7.47;2.70;;;;;;;;;;4975162;28;20031;-69
2023/08/11 11:35:08;;;;;;;9.38;3.10;;;;;;;;;;4975188;28;20484;-70
2023/08/11 11:37:35;;;;;;;5.20;3.00;;;;;;;;;;4974552;28;20027;-70
2023/08/11 11:40:06;;;;;;;5.80;2.75;;;;;;;;;;4971882;28;20027;-68
2023/08/11 11:42:35;;;;;;;6.35;3.00;;;;;;;;;;4974113;28;20399;-71
2023/08/11 11:45:02;;;;;;;4.68;2.78;;;;;;;;;;4973730;28;20028;-71
2023/08/11 11:47:28;;;;;;;9.27;3.22;;;;;;;;;;4974367;28;20031;-69
2023/08/11 11:49:58;;;;;;;3.97;2.88;;;;;;;;;;4974732;28;20033;-71
2023/08/11 11:52:25;;;;;;;5.80;3.20;;;;;;;;;;4974809;28;20031;-71
2023/08/11 11:54:55;;;;;;;5.32;2.97;;;;;;;;;;4974860;28;20046;-70
2023/08/11 11:57:22;;;;;;;7.88;3.00;;;;;;;;;;4974778;28;20041;-69
2023/08/11 11:59:50;;;;;;;7.03;2.60;;;;;;;;;;4974379;28;20037;-70
2023/08/11 12:02:17;;;;;;;6.82;3.20;;;;;;;;;;4975074;28;20037;-70
2023/08/11 12:04:43;;;;;;;13.70;3.25;;;;;;;;;;4974606;28;20015;-69
2023/08/11 12:07:10;;;;;;;5.50;2.90;;;;;;;;;;4974569;28;20031;-69
2023/08/11 12:09:53;;;;;;;6.57;2.63;;;;;;;;;;4973809;28;20029;-71
2023/08/11 12:12:19;;;;;;;4.85;2.80;;;;;;;;;;4974493;28;20033;-71
2023/08/11 12:14:46;;;;;;;6.05;3.03;;;;;;;;;;4973815;28;20039;-71
2023/08/11 12:17:12;;;;;;;4.45;3.08;;;;;;;;;;4974250;28;20033;-70
2023/08/11 12:19:39;;;;;;;4.80;2.70;;;;;;;;;;4974589;28;20034;-71
2023/08/11 12:22:05;;;;;;;5.55;2.70;;;;;;;;;;4974493;28;20019;-71
2023/08/11 12:24:31;;;;;;;7.30;2.70;;;;;;;;;;4974422;28;20023;-71
2023/08/11 12:26:58;;;;;;;5.90;2.90;;;;;;;;;;4974259;28;20446;-72
2023/08/11 12:29:24;;;;;;;6.47;3.17;;;;;;;;;;4973858;28;20518;-70
2023/08/11 12:31:50;;;;;;;4.20;2.90;;;;;;;;;;4974406;28;20015;-70
2023/08/11 12:34:17;;;;;;;7.20;2.90;;;;;;;;;;4974157;28;20026;-71
2023/08/11 12:36:43;;;;;;;5.75;2.90;;;;;;;;;;4973191;28;20043;-69
2023/08/11 12:39:09;;;;;;;6.75;3.03;;;;;;;;;;4974090;28;20035;-71
2023/08/11 12:41:36;;;;;;;5.45;2.67;;;;;;;;;;4973990;28;20023;-71
2023/08/11 12:44:02;;;;;;;3.92;2.60;;;;;;;;;;4973619;28;20029;-71
2023/08/11 12:46:29;;;;;;;8.45;2.70;;;;;;;;;;4973856;28;20495;-70
2023/08/11 12:48:55;;;;;;;8.55;3.35;;;;;;;;;;4974127;28;20018;-71
2023/08/11 12:51:21;;;;;;;5.35;2.67;;;;;;;;;;4969844;28;20033;-70
2023/08/11 12:53:48;;;;;;;7.78;2.75;;;;;;;;;;4972829;28;20031;-70
2023/08/11 12:56:14;;;;;;;7.65;3.15;;;;;;;;;;4973686;28;20035;-71
2023/08/11 12:58:40;;;;;;;3.88;2.80;;;;;;;;;;4973175;28;20491;-71
2023/08/11 13:01:07;;;;;;;6.28;2.72;;;;;;;;;;4973546;28;20023;-70
2023/08/11 13:03:36;;;;;;;6.60;3.13;;;;;;;;;;4973699;28;20455;-71
2023/08/11 13:06:02;;;;;;;;;;;;;;;;;;4974229;28;20027;-70
2023/08/11 13:08:28;;;;;;;6.20;2.90;;;;;;;;;;4973544;28;20379;-71
2023/08/11 13:10:55;;;;;;;5.20;2.80;;;;;;;;;;4973788;28;20041;-70
2023/08/11 13:13:22;;;;;;;7.60;3.10;;;;;;;;;;4971796;28;20047;-70
2023/08/11 13:15:48;;;;;;;4.35;2.70;;;;;;;;;;4973525;28;20042;-71
2023/08/11 13:18:14;;;;;;;7.32;3.20;;;;;;;;;;4972838;28;20026;-69
2023/08/11 13:20:41;;;;;;;5.68;3.30;;;;;;;;;;4973003;28;20507;-72
2023/08/11 13:23:07;;;;;;;7.60;2.92;;;;;;;;;;4972762;28;20027;-71
2023/08/11 13:25:33;;;;;;;5.93;2.80;;;;;;;;;;4972891;28;20033;-69
2023/08/11 13:28:00;;;;;;;7.82;3.08;;;;;;;;;;4972203;28;20018;-70
2023/08/11 13:30:27;;;;;;;4.78;2.72;;;;;;;;;;4970138;28;20391;-70
2023/08/11 13:32:53;;;;;;;6.45;3.25;;;;;;;;;;4953870;29;20031;-70
2023/08/11 13:35:19;;;;;;;7.20;2.95;;;;;;;;;;4953948;29;20555;-71
2023/08/11 13:37:46;;;;;;;9.20;3.15;;;;;;;;;;4953924;28;20515;-71
2023/08/11 13:40:12;;;;;;;9.40;3.05;;;;;;;;;;4954073;28;20030;-70
2023/08/11 13:42:39;;;;;;;6.97;2.60;;;;;;;;;;4952903;28;20563;-71
2023/08/11 13:45:05;;;;;;;5.28;2.83;;;;;;;;;;4954117;28;20028;-71
2023/08/11 13:47:31;;;;;;;6.53;3.10;;;;;;;;;;4973239;28;20027;-71
2023/08/11 13:49:58;;;;;;;6.47;2.70;;;;;;;;;;4973013;28;20035;-71
2023/08/11 13:52:24;;;;;;;4.70;3.03;;;;;;;;;;4971909;28;20403;-72
2023/08/11 13:55:00;;;;;;;9.38;3.50;;;;;;;;;;4972834;28;20651;-71
2023/08/11 13:57:27;;;;;;;9.52;2.70;;;;;;;;;;4972742;28;20434;-70
2023/08/11 13:59:57;;;;;;;6.35;2.80;;;;;;;;;;4973120;28;20023;-70
2023/08/11 14:02:25;;;;;;;5.03;2.75;;;;;;;;;;4972034;28;20048;-71
2023/08/11 14:04:51;;;;;;;4.93;3.03;;;;;;;;;;4972601;28;20050;-71
2023/08/11 14:07:19;;;;;;;5.68;2.70;;;;;;;;;;4972852;28;20023;-71
2023/08/11 14:09:45;;;;;;;7.25;2.60;;;;;;;;;;4973084;28;20018;-71
2023/08/11 14:12:14;;;;;;;7.35;3.05;;;;;;;;;;4972747;28;20550;-71
2023/08/11 14:14:40;;;;;;;6.28;3.03;;;;;;;;;;4972696;28;20523;-71
2023/08/11 14:17:06;;;;;;;5.60;3.15;;;;;;;;;;4972862;28;20492;-72
2023/08/11 14:19:33;;;;;;;11.60;3.00;;;;;;;;;;4972863;28;20025;-71
2023/08/11 14:21:59;;;;;;;5.30;2.80;;;;;;;;;;4973218;28;20023;-71
2023/08/11 14:24:25;;;;;;;7.53;2.70;;;;;;;;;;4972805;28;20476;-71
2023/08/11 14:26:52;;;;;;;7.57;3.00;;;;;;;;;;4972421;28;20039;-69
2023/08/11 14:29:18;;;;;;;11.50;3.13;;;;;;;;;;4972628;28;20019;-68
2023/08/11 14:31:44;;;;;;;5.82;3.10;;;;;;;;;;4972427;28;20488;-71
2023/08/11 14:34:11;;;;;;;6.72;3.05;;;;;;;;;;4975009;28;20069;-71